createdAt,value
2019-03-09T00:01:31.378Z,1.20
2019-03-09T00:04:40.465Z,1.30
2019-03-09T00:07:22.709Z,1.20
2019-03-09T00:10:05.844Z,1.20
2019-03-09T00:12:55.572Z,1.17
2019-03-09T00:15:47.075Z,1.17
2019-03-09T00:18:29.583Z,1.60
2019-03-09T00:21:19.359Z,1.10
2019-03-09T00:24:27.926Z,1.20
2019-03-09T00:27:18.123Z,1.20
2019-03-09T00:30:28.370Z,1.30
2019-03-09T00:33:18.168Z,1.30
2019-03-09T00:36:02.283Z,1.30
2019-03-09T00:38:52.061Z,1.13
2019-03-09T00:44:22.305Z,1.10
2019-03-09T00:47:12.065Z,0.97
2019-03-09T00:50:20.570Z,1.07
2019-03-09T00:53:10.627Z,1.27
2019-03-09T00:56:00.463Z,1.17
2019-03-09T00:58:50.242Z,0.90
2019-03-09T01:01:40.077Z,1.33
2019-03-09T01:04:29.803Z,1.20
2019-03-09T01:07:12.484Z,1.37
2019-03-09T01:10:02.234Z,1.57
2019-03-09T01:12:51.982Z,1.53
2019-03-09T01:15:41.720Z,1.30
2019-03-09T01:18:24.773Z,1.47
2019-03-09T01:21:14.583Z,1.20
2019-03-09T01:23:57.434Z,1.70
2019-03-09T01:26:39.333Z,1.57
2019-03-09T01:29:29.131Z,1.50
2019-03-09T01:32:18.975Z,1.30
2019-03-09T01:35:08.827Z,1.63
2019-03-09T01:37:58.586Z,1.63
2019-03-09T01:40:48.295Z,1.70
2019-03-09T01:43:30.222Z,1.50
2019-03-09T01:46:20.087Z,1.70
2019-03-09T01:49:09.959Z,1.57
2019-03-09T01:52:00.006Z,1.50
2019-03-09T01:54:49.778Z,1.37
2019-03-09T01:57:39.555Z,1.60
2019-03-09T02:00:29.391Z,1.47
2019-03-09T02:03:19.215Z,1.50
2019-03-09T02:06:08.993Z,1.77
2019-03-09T02:08:58.722Z,1.43
2019-03-09T02:11:48.498Z,1.37
2019-03-09T02:14:38.288Z,1.73
2019-03-09T02:17:28.057Z,1.43
2019-03-09T02:20:17.901Z,1.77
2019-03-09T02:23:07.653Z,1.80
2019-03-09T02:25:57.357Z,1.70
2019-03-09T02:28:47.037Z,1.97
2019-03-09T02:31:36.783Z,2.13
2019-03-09T02:34:18.789Z,1.80
2019-03-09T02:37:08.877Z,1.80
2019-03-09T02:43:07.076Z,2.10
2019-03-09T02:45:50.081Z,2.03
2019-03-09T02:57:16.129Z,2.23
2019-03-09T03:00:02.198Z,2.40
2019-03-09T03:02:48.155Z,2.20
2019-03-09T03:05:37.903Z,2.43
2019-03-09T03:08:46.752Z,2.30
2019-03-09T03:11:28.843Z,2.33
2019-03-09T03:14:18.750Z,2.70
2019-03-09T03:17:08.617Z,2.40
2019-03-09T03:20:17.492Z,2.30
2019-03-09T03:23:07.239Z,2.20
2019-03-09T03:25:56.980Z,2.60
2019-03-09T03:28:39.926Z,2.47
2019-03-09T03:31:29.869Z,2.13
2019-03-09T03:34:13.307Z,2.60
2019-03-09T03:37:03.085Z,2.13
2019-03-09T03:39:52.948Z,2.60
2019-03-09T03:42:42.677Z,2.47
2019-03-09T03:45:24.980Z,2.17
2019-03-09T03:48:14.746Z,1.87
2019-03-09T03:51:04.679Z,2.27
2019-03-09T03:53:54.389Z,2.00
2019-03-09T03:56:37.257Z,2.20
2019-03-09T03:59:26.994Z,2.10
2019-03-09T04:02:16.748Z,2.00
2019-03-09T04:05:06.750Z,2.47
2019-03-09T04:07:56.471Z,2.07
2019-03-09T04:10:38.767Z,2.20
2019-03-09T04:13:47.607Z,1.87
2019-03-09T04:16:37.294Z,1.70
2019-03-09T04:19:27.007Z,2.03
2019-03-09T04:22:16.727Z,2.50
2019-03-09T04:24:58.831Z,1.73
2019-03-09T04:27:48.593Z,2.40
2019-03-09T04:30:32.232Z,1.50
2019-03-09T04:33:22.056Z,2.00
2019-03-09T04:36:04.712Z,2.23
2019-03-09T04:38:54.431Z,1.80
2019-03-09T04:41:36.544Z,1.90
2019-03-09T04:44:27.216Z,1.40
2019-03-09T04:47:10.378Z,1.77
2019-03-09T04:50:00.119Z,1.63
2019-03-09T04:52:49.881Z,1.43
2019-03-09T04:55:39.618Z,1.60
2019-03-09T04:58:29.336Z,1.67
2019-03-09T05:01:11.531Z,1.60
2019-03-09T05:10:33.172Z,1.70
2019-03-09T05:13:23.252Z,1.47
2019-03-09T05:16:13.134Z,1.67
2019-03-09T05:19:02.899Z,1.33
2019-03-09T05:21:52.655Z,1.63
2019-03-09T05:24:42.425Z,1.90
2019-03-09T05:27:32.292Z,1.80
2019-03-09T05:30:44.629Z,1.90
2019-03-09T05:33:34.599Z,1.57
2019-03-09T05:36:24.381Z,1.60
2019-03-09T05:39:14.164Z,1.70
2019-03-09T05:42:03.964Z,1.33
2019-03-09T05:44:53.838Z,1.30
2019-03-09T05:47:43.639Z,0.93
2019-03-09T05:50:33.393Z,1.33
2019-03-09T05:53:23.657Z,1.33
2019-03-09T05:56:13.374Z,1.40
2019-03-09T05:59:03.086Z,1.30
2019-03-09T06:01:46.903Z,1.30
2019-03-09T06:04:36.673Z,1.20
2019-03-09T06:07:19.131Z,0.77
2019-03-09T06:13:02.268Z,1.30
2019-03-09T06:15:52.042Z,0.83
2019-03-09T06:18:41.905Z,0.87
2019-03-09T06:21:31.700Z,0.97
2019-03-09T06:24:21.472Z,1.17
2019-03-09T06:27:11.285Z,0.90
2019-03-09T06:30:01.028Z,0.90
2019-03-09T06:33:28.935Z,0.87
2019-03-09T06:36:30.887Z,0.70
2019-03-09T06:40:02.605Z,0.90
2019-03-09T06:42:49.859Z,0.80
2019-03-09T06:45:31.821Z,0.97
2019-03-09T06:48:21.619Z,0.80
2019-03-09T06:51:11.413Z,0.77
2019-03-09T06:54:01.358Z,0.70
2019-03-09T06:56:51.302Z,1.10
2019-03-09T06:59:41.133Z,0.50
2019-03-09T07:02:30.861Z,0.90
2019-03-09T07:05:20.588Z,0.90
2019-03-09T07:08:03.060Z,1.00
2019-03-09T07:10:52.842Z,1.03
2019-03-09T07:13:52.102Z,0.77
2019-03-09T07:16:15.482Z,0.60
2019-03-09T07:19:06.823Z,0.73
2019-03-09T07:21:37.518Z,0.93
2019-03-09T07:24:27.212Z,0.80
2019-03-09T07:27:09.135Z,0.90
2019-03-09T07:29:58.832Z,0.80
2019-03-09T07:33:07.373Z,1.17
2019-03-09T07:35:57.115Z,1.10
2019-03-09T07:38:46.819Z,0.70
2019-03-09T07:41:28.912Z,1.13
2019-03-09T07:44:18.736Z,1.30
2019-03-09T07:47:08.609Z,0.90
2019-03-09T07:49:58.410Z,0.90
2019-03-09T07:52:48.124Z,0.90
2019-03-09T07:55:30.476Z,1.33
2019-03-09T07:58:20.238Z,1.43
2019-03-09T08:01:10.090Z,1.10
2019-03-09T08:03:59.940Z,1.30
2019-03-09T08:06:49.680Z,1.20
2019-03-09T08:09:31.758Z,0.90
2019-03-09T08:12:21.524Z,1.07
2019-03-09T08:15:14.217Z,1.20
2019-03-09T08:18:03.767Z,0.93
2019-03-09T08:20:46.140Z,1.47
2019-03-09T08:23:35.884Z,1.43
2019-03-09T08:26:25.697Z,1.33
2019-03-09T08:29:15.481Z,1.20
2019-03-09T08:32:05.408Z,1.33
2019-03-09T08:34:55.216Z,1.10
2019-03-09T08:37:45.114Z,1.00
2019-03-09T08:40:34.892Z,1.30
2019-03-09T08:43:24.654Z,1.30
2019-03-09T08:46:06.985Z,1.30
2019-03-09T08:48:56.729Z,0.90
2019-03-09T08:51:39.147Z,1.10
2019-03-09T08:54:29.434Z,1.00
2019-03-09T08:57:19.251Z,1.00
2019-03-09T09:00:15.862Z,2.17
2019-03-09T09:06:13.335Z,1.20
2019-03-09T09:09:03.350Z,0.93
2019-03-09T09:12:12.241Z,1.23
2019-03-09T09:15:21.147Z,1.20
2019-03-09T09:18:11.076Z,1.20
2019-03-09T09:20:53.375Z,1.30
2019-03-09T09:23:43.107Z,1.30
2019-03-09T09:27:03.901Z,1.03
2019-03-09T09:29:45.839Z,1.30
2019-03-09T09:32:35.711Z,1.10
2019-03-09T09:35:25.663Z,1.03
2019-03-09T09:38:15.557Z,1.70
2019-03-09T09:41:05.235Z,1.33
2019-03-09T09:43:54.955Z,2.00
2019-03-09T09:46:37.329Z,1.30
2019-03-09T09:49:46.149Z,2.43
2019-03-09T09:52:29.967Z,0.93
2019-03-09T09:55:19.755Z,1.20
2019-03-09T09:58:01.967Z,1.00
2019-03-09T10:00:51.718Z,1.40
2019-03-09T10:03:34.317Z,1.20
2019-03-09T10:09:25.735Z,0.63
2019-03-09T10:12:15.455Z,1.00
2019-03-09T10:14:57.877Z,0.87
2019-03-09T10:18:06.746Z,0.93
2019-03-09T10:20:49.281Z,1.13
2019-03-09T10:23:39.041Z,1.10
2019-03-09T10:26:24.680Z,0.80
2019-03-09T10:29:13.387Z,0.93
2019-03-09T10:31:55.364Z,0.80
2019-03-09T10:34:45.097Z,0.50
2019-03-09T10:37:27.296Z,1.20
2019-03-09T10:40:17.262Z,0.80
2019-03-09T10:42:59.539Z,0.80
2019-03-09T10:45:49.245Z,0.40
2019-03-09T10:48:31.412Z,0.70
2019-03-09T10:51:21.263Z,0.93
2019-03-09T10:54:03.646Z,0.87
2019-03-09T10:56:53.451Z,0.70
2019-03-09T10:59:43.277Z,0.87
2019-03-09T11:02:33.051Z,1.00
2019-03-09T11:05:22.963Z,0.70
2019-03-09T11:08:31.789Z,1.30
2019-03-09T11:11:21.522Z,1.07
2019-03-09T11:14:04.394Z,1.23
2019-03-09T11:16:54.167Z,1.23
2019-03-09T11:19:43.956Z,0.87
2019-03-09T11:22:33.908Z,1.13
2019-03-09T11:25:23.642Z,0.90
2019-03-09T11:28:14.746Z,1.10
2019-03-09T11:31:17.404Z,0.90
2019-03-09T11:33:59.925Z,0.77
2019-03-09T11:36:49.735Z,1.20
2019-03-09T11:39:32.593Z,1.40
2019-03-09T11:42:15.932Z,1.20
2019-03-09T11:44:58.664Z,1.33
2019-03-09T11:47:48.443Z,1.00
2019-03-09T11:50:38.216Z,1.20
2019-03-09T11:53:47.058Z,1.00
2019-03-09T11:56:36.891Z,1.10
2019-03-09T11:59:26.703Z,1.23
2019-03-09T12:02:16.514Z,1.00
2019-03-09T12:05:06.803Z,1.10
2019-03-09T12:08:15.650Z,1.37
2019-03-09T12:11:05.462Z,1.20
2019-03-09T12:13:55.234Z,1.10
2019-03-09T12:16:45.076Z,1.07
2019-03-09T12:19:34.856Z,1.20
2019-03-09T12:22:24.643Z,1.27
2019-03-09T12:25:14.603Z,1.10
2019-03-09T12:28:04.339Z,1.20
2019-03-09T12:30:54.100Z,1.20
2019-03-09T12:33:36.266Z,1.03
2019-03-09T12:36:26.082Z,1.00
2019-03-09T12:39:15.931Z,0.70
2019-03-09T12:42:05.725Z,1.07
2019-03-09T12:48:00.777Z,1.00
2019-03-09T12:50:43.648Z,0.70
2019-03-09T12:53:33.364Z,0.90
2019-03-09T12:56:23.172Z,0.67
2019-03-09T12:59:12.999Z,0.90
2019-03-09T13:02:02.771Z,1.00
2019-03-09T13:04:52.551Z,1.20
2019-03-09T13:08:01.434Z,0.87
2019-03-09T13:10:51.242Z,0.70
2019-03-09T13:13:41.029Z,0.90
2019-03-09T13:16:30.810Z,0.60
2019-03-09T13:19:20.579Z,0.90
2019-03-09T13:22:10.316Z,0.87
2019-03-09T13:25:00.139Z,0.90
2019-03-09T13:27:50.051Z,0.90
2019-03-09T13:30:39.757Z,0.97
2019-03-09T13:33:29.487Z,0.80
2019-03-09T13:36:19.201Z,0.90
2019-03-09T13:39:03.087Z,1.07
2019-03-09T13:44:54.531Z,0.77
2019-03-09T13:47:44.255Z,0.70
2019-03-09T13:50:48.639Z,1.03
2019-03-09T13:53:19.085Z,0.70
2019-03-09T13:56:08.965Z,0.77
2019-03-09T13:58:58.700Z,0.77
2019-03-09T14:01:41.429Z,0.83
2019-03-09T14:04:43.768Z,1.03
2019-03-09T14:07:29.595Z,0.50
2019-03-09T14:10:19.313Z,0.70
2019-03-09T14:13:01.687Z,0.63
2019-03-09T14:15:51.467Z,0.60
2019-03-09T14:18:34.025Z,0.50
2019-03-09T14:21:23.905Z,0.70
2019-03-09T14:24:13.807Z,0.70
2019-03-09T14:27:03.607Z,0.67
2019-03-09T14:29:53.509Z,0.60
2019-03-09T14:32:43.318Z,0.67
2019-03-09T14:35:33.143Z,0.70
2019-03-09T14:38:22.994Z,0.63
2019-03-09T14:41:12.759Z,0.70
2019-03-09T14:44:02.569Z,0.57
2019-03-09T14:46:52.295Z,0.63
2019-03-09T14:49:34.733Z,0.70
2019-03-09T14:52:24.460Z,0.70
2019-03-09T14:55:06.841Z,0.80
2019-03-09T14:57:56.589Z,1.00
2019-03-09T15:00:38.929Z,0.80
2019-03-09T15:03:28.676Z,1.00
2019-03-09T15:06:10.898Z,1.03
2019-03-09T15:09:00.627Z,1.20
2019-03-09T15:11:43.114Z,1.10
2019-03-09T15:14:32.844Z,0.67
2019-03-09T15:17:15.454Z,0.80
2019-03-09T15:20:05.464Z,0.93
2019-03-09T15:22:48.320Z,1.10
2019-03-09T15:25:38.052Z,1.03
2019-03-09T15:28:20.953Z,1.03
2019-03-09T15:31:10.697Z,1.10
2019-03-09T15:33:55.089Z,0.80
2019-03-09T15:36:44.826Z,0.90
2019-03-09T15:39:27.377Z,0.70
2019-03-09T15:42:17.072Z,0.60
2019-03-09T15:44:59.631Z,0.90
2019-03-09T15:47:49.327Z,0.77
2019-03-09T15:50:31.376Z,0.97
2019-03-09T15:53:21.098Z,0.60
2019-03-09T15:56:03.584Z,0.50
2019-03-09T15:58:53.325Z,0.50
2019-03-09T16:01:35.724Z,0.30
2019-03-09T16:04:44.553Z,0.50
2019-03-09T16:07:26.676Z,0.53
2019-03-09T16:10:35.534Z,0.37
2019-03-09T16:13:32.116Z,0.40
2019-03-09T16:16:21.867Z,0.50
2019-03-09T16:19:04.721Z,0.60
2019-03-09T16:21:54.583Z,0.30
2019-03-09T16:25:03.436Z,0.40
2019-03-09T16:27:53.254Z,0.50
2019-03-09T16:30:43.086Z,0.40
2019-03-09T16:33:32.951Z,0.70
2019-03-09T16:36:22.757Z,0.37
2019-03-09T16:39:13.513Z,0.53
2019-03-09T16:41:56.417Z,0.43
2019-03-09T16:44:46.118Z,0.57
2019-03-09T16:47:28.205Z,0.60
2019-03-09T16:50:17.933Z,0.93
2019-03-09T16:53:00.264Z,1.13
2019-03-09T16:55:49.985Z,0.90
2019-03-09T16:58:31.959Z,0.87
2019-03-09T17:01:21.676Z,1.63
2019-03-09T17:04:03.673Z,1.80
2019-03-09T17:09:54.659Z,0.87
2019-03-09T17:12:44.361Z,1.50
2019-03-09T17:15:26.733Z,1.47
2019-03-09T17:18:16.461Z,1.37
2019-03-09T17:20:59.152Z,2.53
2019-03-09T17:23:48.939Z,1.10
2019-03-09T17:26:31.417Z,1.10
2019-03-09T17:29:21.145Z,1.13
2019-03-09T17:32:03.361Z,2.10
2019-03-09T17:34:53.072Z,1.47
2019-03-09T17:37:35.214Z,1.70
2019-03-09T17:40:24.951Z,1.40
2019-03-09T17:43:07.259Z,2.03
2019-03-09T17:45:57.007Z,1.30
2019-03-09T17:48:46.703Z,1.30
2019-03-09T17:51:29.483Z,1.47
2019-03-09T17:54:12.868Z,1.40
2019-03-09T17:56:54.782Z,1.60
2019-03-09T17:59:44.567Z,1.20
2019-03-09T18:02:26.968Z,1.37
2019-03-09T18:08:12.221Z,1.37
2019-03-09T18:10:50.978Z,0.97
2019-03-09T18:14:07.017Z,2.07
2019-03-09T18:16:52.456Z,0.93
2019-03-09T18:19:35.579Z,1.00
2019-03-09T18:22:25.309Z,1.20
2019-03-09T18:28:18.787Z,1.50
2019-03-09T18:31:08.564Z,0.60
2019-03-09T18:33:58.333Z,0.50
2019-03-09T18:36:48.043Z,0.70
2019-03-09T18:39:30.277Z,0.90
2019-03-09T18:42:39.124Z,1.10
2019-03-09T18:45:28.926Z,1.03
2019-03-09T18:48:18.697Z,0.77
2019-03-09T18:51:08.476Z,0.90
2019-03-09T18:53:58.469Z,0.80
2019-03-09T18:56:48.232Z,0.80
2019-03-09T18:59:38.024Z,1.27
2019-03-09T19:02:27.852Z,0.90
2019-03-09T19:05:17.739Z,0.53
2019-03-09T19:08:07.527Z,0.77
2019-03-09T19:10:57.417Z,0.90
2019-03-09T19:13:40.703Z,1.10
2019-03-09T19:16:22.887Z,0.70
2019-03-09T19:19:12.615Z,0.80
2019-03-09T19:21:55.479Z,0.70
2019-03-09T19:24:45.307Z,0.40
2019-03-09T19:27:35.058Z,0.60
2019-03-09T19:30:24.936Z,0.70
2019-03-09T19:33:14.705Z,0.63
2019-03-09T19:36:04.451Z,0.80
2019-03-09T19:39:13.334Z,0.77
2019-03-09T19:42:03.174Z,0.67
2019-03-09T19:44:52.922Z,0.80
2019-03-09T19:47:42.693Z,0.60
2019-03-09T19:53:28.303Z,1.27
2019-03-09T19:56:18.120Z,0.90
2019-03-09T19:59:07.949Z,2.40
2019-03-09T20:01:57.898Z,0.60
2019-03-09T20:04:47.712Z,0.77
2019-03-09T20:07:37.483Z,1.10
2019-03-09T20:10:40.672Z,0.60
2019-03-09T20:13:23.399Z,0.90
2019-03-09T20:16:13.116Z,0.70
2019-03-09T20:21:51.484Z,0.80
2019-03-09T20:24:41.290Z,0.90
2019-03-09T20:27:31.318Z,0.90
2019-03-09T20:33:24.767Z,0.97
2019-03-09T20:36:07.446Z,0.90
2019-03-09T20:38:57.247Z,1.17
2019-03-09T20:42:06.080Z,0.80
2019-03-09T20:44:49.001Z,1.13
2019-03-09T20:47:38.779Z,1.00
2019-03-09T20:50:28.650Z,0.80
2019-03-09T20:53:18.510Z,0.80
2019-03-09T20:56:20.550Z,0.90
2019-03-09T20:59:03.050Z,0.90
2019-03-09T21:01:52.788Z,1.20
2019-03-09T21:04:34.831Z,1.20
2019-03-09T21:07:24.552Z,1.23
2019-03-09T21:10:07.081Z,1.20
2019-03-09T21:13:01.662Z,0.90
2019-03-09T21:15:44.216Z,1.07
2019-03-09T21:18:33.936Z,1.20
2019-03-09T21:21:16.341Z,0.80
2019-03-09T21:24:06.047Z,1.50
2019-03-09T21:26:55.755Z,1.30
2019-03-09T21:29:45.494Z,1.17
2019-03-09T21:32:35.201Z,1.10
2019-03-09T21:35:25.070Z,1.37
2019-03-09T21:38:14.796Z,1.20
2019-03-09T21:41:23.282Z,1.27
2019-03-09T21:44:06.063Z,1.10
2019-03-09T21:46:55.895Z,1.17
2019-03-09T21:49:45.704Z,1.43
2019-03-09T21:52:35.483Z,1.13
2019-03-09T21:55:25.223Z,1.10
2019-03-09T21:58:15.061Z,1.10
2019-03-09T22:01:04.785Z,1.40
2019-03-09T22:03:54.523Z,1.20
2019-03-09T22:06:37.485Z,1.47
2019-03-09T22:09:27.274Z,1.20
2019-03-09T22:12:17.059Z,1.30
2019-03-09T22:15:07.658Z,1.33
2019-03-09T22:17:57.563Z,1.37
2019-03-09T22:20:47.344Z,1.33
2019-03-09T22:23:44.043Z,1.30
2019-03-09T22:26:21.160Z,1.50
2019-03-09T22:29:10.929Z,1.50
2019-03-09T22:31:41.566Z,1.40
2019-03-09T22:34:31.344Z,1.60
2019-03-09T22:37:21.165Z,1.40
2019-03-09T22:40:11.324Z,1.70
2019-03-09T22:43:01.134Z,1.33
2019-03-09T22:45:50.953Z,1.63
2019-03-09T22:48:40.711Z,1.50
2019-03-09T22:51:30.967Z,1.60
2019-03-09T22:54:20.831Z,1.50
2019-03-09T23:03:31.804Z,1.90
2019-03-09T23:06:21.530Z,1.90
2019-03-09T23:09:05.446Z,1.43
2019-03-09T23:11:55.147Z,1.43
2019-03-09T23:14:37.574Z,1.83
2019-03-09T23:20:28.582Z,1.70
2019-03-09T23:23:18.306Z,1.53
2019-03-09T23:26:00.762Z,1.97
2019-03-09T23:28:51.386Z,1.77
2019-03-09T23:31:35.729Z,1.80
2019-03-09T23:34:25.884Z,1.77
2019-03-09T23:37:10.210Z,1.60
2019-03-09T23:43:07.293Z,1.57
2019-03-09T23:49:01.667Z,1.80
2019-03-09T23:54:50.193Z,1.70
2019-03-09T23:58:01.495Z,1.70
